Time;durP1;ratioP1;P1;durP2;ratioP2;P2;SDS_P1;SDS_P2;PMS_P1;PMS_P2;Temp;Humidity;BMP_temperature;BMP_pressure;BME280_temperature;BME280_humidity;BME280_pressure;Samples;Min_cycle;Max_cycle;Signal;HPM_P1;HPM_P2
2023/06/09 00:02:27;;;;;;;1.60;0.70;;;;;;;21.12;78.58;99399.41;10211078;28;98104;-78
2023/06/09 00:07:33;;;;;;;2.28;0.70;;;;;;;21.09;79.20;99396.19;10209560;28;98089;-77
2023/06/09 00:12:36;;;;;;;0.70;0.52;;;;;;;21.05;79.11;99400.97;10210202;28;97005;-78
2023/06/09 00:17:41;;;;;;;2.95;0.90;;;;;;;21.04;79.20;99409.16;10210807;28;97166;-78
2023/06/09 00:22:45;;;;;;;1.13;0.70;;;;;;;21.04;79.18;99401.97;10209627;28;96870;-78
2023/06/09 00:27:48;;;;;;;1.20;0.70;;;;;;;20.95;79.34;99394.84;10207315;28;96551;-77
2023/06/09 00:32:53;;;;;;;0.98;0.70;;;;;;;20.91;79.70;99384.59;10218173;28;96680;-78
2023/06/09 00:37:56;;;;;;;1.67;0.88;;;;;;;21.03;79.17;99391.44;10249337;28;96557;-78
2023/06/09 00:43:00;;;;;;;1.20;0.60;;;;;;;21.10;79.01;99389.84;10249277;28;96814;-78
2023/06/09 00:48:06;;;;;;;1.52;0.63;;;;;;;21.06;78.67;99393.81;10226906;28;97497;-78
2023/06/09 00:53:11;;;;;;;1.13;0.70;;;;;;;20.96;79.02;99390.34;10207701;28;96621;-78
2023/06/09 00:58:15;;;;;;;0.65;0.50;;;;;;;20.99;79.01;99392.72;10208653;28;96999;-78
2023/06/09 01:03:19;;;;;;;0.93;0.65;;;;;;;20.99;78.96;99390.88;10208239;28;96949;-78
2023/06/09 01:08:28;;;;;;;2.92;0.98;;;;;;;20.93;79.24;99385.28;10209109;28;96977;-78
2023/06/09 01:13:41;;;;;;;1.05;0.60;;;;;;;20.72;79.79;99380.16;10207936;28;97532;-78
2023/06/09 01:18:48;;;;;;;1.52;0.88;;;;;;;20.59;80.29;99384.09;10207954;28;96748;-78
2023/06/09 01:24:04;;;;;;;0.98;0.75;;;;;;;20.67;79.80;99389.59;10207372;28;96814;-78
2023/06/09 01:29:11;;;;;;;1.10;0.60;;;;;;;20.55;80.20;99386.22;10207837;28;97065;-78
2023/06/09 01:34:15;;;;;;;2.15;0.73;;;;;;;20.66;79.73;99386.06;10207492;28;96739;-78
2023/06/09 01:39:18;;;;;;;1.63;0.57;;;;;;;20.47;80.38;99380.78;10207404;28;96915;-78
2023/06/09 01:44:23;;;;;;;0.85;0.57;;;;;;;20.57;80.06;99378.91;10208020;28;97021;-78
2023/06/09 01:49:33;;;;;;;1.05;0.63;;;;;;;20.52;79.97;99369.63;10207035;28;96879;-78
2023/06/09 01:54:41;;;;;;;1.27;0.77;;;;;;;20.52;79.86;99380.31;10207301;28;96583;-78
2023/06/09 01:59:54;;;;;;;0.82;0.70;;;;;;;20.53;79.71;99392.72;10232701;28;97632;-78
2023/06/09 02:04:59;;;;;;;1.33;0.70;;;;;;;20.69;79.34;99391.13;10248060;28;96603;-78
2023/06/09 02:10:03;;;;;;;1.60;0.60;;;;;;;20.66;79.58;99385.22;10253688;28;96675;-78
2023/06/09 02:15:08;;;;;;;;;;;;;;;20.57;80.32;99376.25;10252589;28;96782;-78
2023/06/09 02:20:13;;;;;;;1.00;0.52;;;;;;;20.45;80.28;99369.38;10226682;28;96792;-78
2023/06/09 02:25:16;;;;;;;0.80;0.70;;;;;;;20.53;79.69;99376.69;10213226;28;97044;-78
2023/06/09 02:30:21;;;;;;;1.30;0.60;;;;;;;20.62;79.74;99376.66;10213112;28;97184;-78
2023/06/09 02:35:24;;;;;;;0.75;0.60;;;;;;;20.70;79.73;99386.63;10213148;28;97468;-78
2023/06/09 02:40:29;;;;;;;1.38;0.73;;;;;;;20.72;79.67;99390.84;10212871;28;96594;-78
2023/06/09 02:45:34;;;;;;;0.80;0.65;;;;;;;20.76;79.63;99389.56;10210171;28;96663;-78
2023/06/09 02:50:39;;;;;;;1.17;0.63;;;;;;;20.72;79.86;99398.03;10237181;28;96563;-78
2023/06/09 02:55:44;;;;;;;;;;;;;;;20.75;79.92;99395.91;10217406;28;96961;-78
2023/06/09 03:00:50;;;;;;;0.98;0.75;;;;;;;20.79;79.47;99399.13;10212196;28;96676;-78
2023/06/09 03:05:54;;;;;;;1.30;0.50;;;;;;;20.86;79.41;99403.72;10220709;28;96706;-78
2023/06/09 03:10:57;;;;;;;0.65;0.50;;;;;;;20.81;79.54;99400.66;10251774;28;96630;-77
2023/06/09 03:16:02;;;;;;;1.17;0.60;;;;;;;20.83;79.93;99403.19;10250788;28;97170;-78
2023/06/09 03:21:08;;;;;;;0.55;0.40;;;;;;;20.70;79.83;99386.63;10251747;28;97378;-78
2023/06/09 03:26:12;;;;;;;1.50;0.63;;;;;;;20.83;79.40;99389.81;10233069;28;97579;-78
2023/06/09 03:31:17;;;;;;;1.13;1.02;;;;;;;20.77;79.56;99395.75;10171278;28;97523;-78
2023/06/09 03:36:21;;;;;;;1.52;0.70;;;;;;;20.72;79.83;99392.69;10171160;28;97257;-78
2023/06/09 03:41:25;;;;;;;1.20;0.63;;;;;;;20.67;80.12;99406.47;10193762;28;97815;-78
2023/06/09 03:46:29;;;;;;;1.17;0.77;;;;;;;20.72;79.91;99385.50;10170541;28;96628;-78
2023/06/09 03:51:33;;;;;;;1.08;0.70;;;;;;;20.66;80.12;99395.91;10170304;28;96858;-78
2023/06/09 03:56:36;;;;;;;1.98;0.65;;;;;;;20.53;80.71;99400.75;10178991;28;96917;-78
2023/06/09 04:01:42;;;;;;;1.02;0.57;;;;;;;20.55;80.53;99404.13;10210439;28;97777;-78
2023/06/09 04:06:46;;;;;;;1.23;0.80;;;;;;;20.58;80.07;99401.16;10209296;28;96787;-78
2023/06/09 04:11:51;;;;;;;0.40;0.30;;;;;;;20.61;80.02;99404.38;10209815;28;96730;-78
2023/06/09 04:16:56;;;;;;;0.82;0.40;;;;;;;20.56;80.05;99409.31;10210219;28;97223;-78
2023/06/09 04:22:07;;;;;;;0.40;0.40;;;;;;;20.55;80.00;99412.13;10209247;28;96891;-78
2023/06/09 04:27:13;;;;;;;0.60;0.50;;;;;;;20.54;80.04;99424.66;10208997;28;97145;-78
2023/06/09 04:32:19;;;;;;;1.45;0.55;;;;;;;20.50;80.51;99425.09;10210482;28;96805;-78
2023/06/09 04:37:25;;;;;;;1.70;0.60;;;;;;;20.55;79.94;99431.66;10208948;28;96749;-78
2023/06/09 04:42:28;;;;;;;2.75;0.60;;;;;;;20.45;80.13;99438.88;10189044;28;96792;-78
2023/06/09 04:47:33;;;;;;;0.40;0.30;;;;;;;20.34;80.91;99442.53;10176263;28;97475;-78
2023/06/09 04:52:39;;;;;;;1.60;0.68;;;;;;;20.50;80.26;99446.47;10207785;28;96832;-78
2023/06/09 04:57:43;;;;;;;0.45;0.43;;;;;;;20.44;80.25;99450.56;10208445;28;96722;-78
2023/06/09 05:02:47;;;;;;;3.08;0.75;;;;;;;20.45;80.34;99454.06;10208458;28;96710;-78
2023/06/09 05:07:51;;;;;;;0.82;0.40;;;;;;;20.56;80.04;99461.94;10208336;28;97035;-78
2023/06/09 05:12:54;;;;;;;2.60;0.60;;;;;;;20.57;79.85;99467.13;10207908;28;97006;-78
2023/06/09 05:17:59;;;;;;;0.50;0.40;;;;;;;20.58;79.84;99470.66;10207938;28;96615;-78
2023/06/09 05:23:03;;;;;;;0.98;0.50;;;;;;;20.42;80.50;99473.06;10209079;28;96691;-78
2023/06/09 05:28:06;;;;;;;0.93;0.47;;;;;;;20.35;81.00;99467.44;10200744;28;96795;-78
2023/06/09 05:33:11;;;;;;;0.50;0.50;;;;;;;20.44;80.60;99474.59;10167479;28;96811;-78
2023/06/09 05:38:14;;;;;;;0.50;0.40;;;;;;;20.30;81.15;99467.88;10173208;28;97106;-79
2023/06/09 05:43:17;;;;;;;0.82;0.47;;;;;;;20.38;80.86;99489.38;10213386;28;96826;-77
2023/06/09 05:48:22;;;;;;;0.73;0.50;;;;;;;20.43;80.70;99491.63;10214459;28;97228;-78
2023/06/09 05:53:26;;;;;;;0.80;0.40;;;;;;;20.39;80.57;99501.75;10214038;28;96697;-78
2023/06/09 05:58:33;;;;;;;0.73;0.45;;;;;;;20.34;81.02;99500.50;10214742;28;96626;-78
2023/06/09 06:03:38;;;;;;;1.20;0.50;;;;;;;20.46;80.66;99503.88;10213968;28;96683;-78
2023/06/09 06:08:42;;;;;;;0.50;0.45;;;;;;;20.43;80.73;99509.50;10213671;28;96783;-78
2023/06/09 06:13:45;;;;;;;0.28;0.25;;;;;;;20.32;80.96;99516.66;10214364;28;96726;-78
2023/06/09 06:18:50;;;;;;;0.40;0.30;;;;;;;20.41;80.69;99516.81;10213707;28;97097;-78
2023/06/09 06:23:54;;;;;;;0.43;0.30;;;;;;;20.36;80.67;99523.41;10213266;28;96640;-78
2023/06/09 06:28:57;;;;;;;0.30;0.30;;;;;;;20.49;80.30;99525.81;10208428;28;96860;-78
2023/06/09 06:34:02;;;;;;;0.57;0.38;;;;;;;20.63;80.12;99522.72;10212965;28;96896;-78
2023/06/09 06:39:11;;;;;;;0.70;0.40;;;;;;;20.51;80.33;99531.00;10212637;28;96695;-78
2023/06/09 06:44:15;;;;;;;0.30;0.30;;;;;;;20.41;80.92;99538.19;10212707;28;96740;-78
2023/06/09 06:49:20;;;;;;;0.75;0.30;;;;;;;20.41;80.71;99541.69;10212831;28;96733;-78
2023/06/09 06:54:23;;;;;;;0.40;0.20;;;;;;;20.41;80.51;99549.69;10211827;28;97247;-78
2023/06/09 06:59:26;;;;;;;0.20;0.20;;;;;;;20.59;80.30;99571.25;10212291;28;97612;-78
2023/06/09 07:04:31;;;;;;;0.20;0.20;;;;;;;20.62;80.15;99568.31;10212820;28;97560;-78
2023/06/09 07:09:35;;;;;;;0.88;0.30;;;;;;;20.76;79.67;99582.09;10212147;28;96751;-78
2023/06/09 07:14:39;;;;;;;0.28;0.20;;;;;;;20.78;79.74;99580.13;10211708;28;96771;-78
2023/06/09 07:19:43;;;;;;;0.60;0.30;;;;;;;20.82;79.72;99588.72;10211428;28;96624;-79
2023/06/09 07:24:47;;;;;;;0.40;0.20;;;;;;;20.78;79.80;99596.16;10211526;28;97370;-79
2023/06/09 07:29:51;;;;;;;0.20;0.20;;;;;;;20.75;80.04;99599.13;10183030;28;96922;-78
2023/06/09 07:34:57;;;;;;;0.47;0.28;;;;;;;20.86;79.86;99598.16;10170985;28;96683;-78
2023/06/09 07:40:01;;;;;;;0.70;0.30;;;;;;;21.03;79.58;99602.78;10199782;28;96752;-78
2023/06/09 07:45:21;;;;;;;1.35;0.30;;;;;;;20.81;80.23;99614.59;10210473;28;96587;-78
2023/06/09 07:50:26;;;;;;;0.10;0.10;;;;;;;20.74;80.71;99607.28;10210197;28;96933;-78
2023/06/09 07:55:30;;;;;;;0.35;0.20;;;;;;;20.71;80.67;99611.06;10211960;28;97024;-78
2023/06/09 08:00:33;;;;;;;0.40;0.30;;;;;;;20.70;80.55;99611.22;10210046;28;96818;-77
2023/06/09 08:05:38;;;;;;;0.43;0.33;;;;;;;20.82;80.43;99610.09;10209158;28;96655;-78
2023/06/09 08:10:41;;;;;;;0.60;0.40;;;;;;;20.87;81.11;99600.69;10209500;28;97188;-78
2023/06/09 08:15:45;;;;;;;0.22;0.20;;;;;;;21.46;79.76;99609.38;10209594;28;96591;-78
2023/06/09 08:20:49;;;;;;;1.13;0.40;;;;;;;21.67;78.69;99614.50;10209506;28;97052;-78
2023/06/09 08:25:53;;;;;;;0.88;0.40;;;;;;;21.61;79.17;99620.44;10209316;28;96575;-78
2023/06/09 08:30:56;;;;;;;0.30;0.30;;;;;;;21.53;79.11;99617.66;10235636;28;96856;-78
2023/06/09 08:36:03;;;;;;;0.50;0.40;;;;;;;21.58;79.32;99609.16;10249172;28;96615;-78
2023/06/09 08:41:10;;;;;;;0.70;0.40;;;;;;;21.68;78.82;99618.00;10249458;28;97685;-78
2023/06/09 08:46:13;;;;;;;0.45;0.38;;;;;;;21.56;79.02;99625.38;10249062;28;96982;-80
2023/06/09 08:51:21;;;;;;;1.00;0.50;;;;;;;21.39;79.41;99624.31;10248944;28;96913;-79
2023/06/09 08:56:24;;;;;;;0.35;0.30;;;;;;;21.45;79.33;99638.94;10248570;28;96625;-79
2023/06/09 09:01:28;;;;;;;0.80;0.63;;;;;;;21.55;78.98;99653.16;10247849;28;96693;-78
2023/06/09 09:06:34;;;;;;;0.83;0.40;;;;;;;21.45;79.54;99671.91;10247458;28;98312;-79
2023/06/09 09:11:37;;;;;;;3.33;0.85;;;;;;;21.21;80.00;99682.22;10248476;28;96978;-78
2023/06/09 09:16:41;;;;;;;0.67;0.60;;;;;;;20.96;80.42;99681.91;10252644;28;97461;-79
2023/06/09 09:21:46;;;;;;;0.52;0.43;;;;;;;20.79;80.97;99691.44;10254692;28;97618;-78
2023/06/09 09:26:49;;;;;;;1.38;0.45;;;;;;;20.88;80.18;99690.63;10249168;28;98282;-78
2023/06/09 09:31:57;;;;;;;0.75;0.38;;;;;;;21.08;79.19;99686.13;10214663;28;96535;-78
2023/06/09 09:37:06;;;;;;;0.28;0.28;;;;;;;21.64;78.25;99687.09;10226699;28;97529;-78
2023/06/09 09:42:10;;;;;;;1.02;0.57;;;;;;;21.91;77.70;99694.34;10255153;28;96672;-78
2023/06/09 09:47:17;;;;;;;0.85;0.40;;;;;;;21.75;77.78;99681.56;10254619;28;97171;-78
2023/06/09 09:52:26;;;;;;;0.88;0.50;;;;;;;21.94;76.26;99681.53;10253432;28;96770;-78
2023/06/09 09:57:31;;;;;;;1.60;0.57;;;;;;;21.98;76.02;99680.28;10253742;28;96723;-78
2023/06/09 10:02:37;;;;;;;1.08;0.50;;;;;;;21.86;75.33;99680.56;10254566;28;97542;-78
2023/06/09 10:07:46;;;;;;;1.65;0.60;;;;;;;21.79;74.34;99690.16;10253843;28;97288;-78
2023/06/09 10:12:50;;;;;;;1.23;0.80;;;;;;;22.10;74.71;99684.47;10253171;28;97492;-78
2023/06/09 10:17:54;;;;;;;1.50;0.55;;;;;;;21.99;73.50;99687.31;10253846;28;96625;-78
2023/06/09 10:22:59;;;;;;;;;;;;;;;22.26;72.35;99687.34;10253987;28;96771;-78
2023/06/09 10:28:02;;;;;;;1.20;0.60;;;;;;;22.66;71.91;99695.06;10236585;28;97198;-78
2023/06/09 10:33:12;;;;;;;1.50;0.57;;;;;;;22.97;73.31;99696.44;10212948;28;97565;-77
2023/06/09 10:38:28;;;;;;;1.02;0.80;;;;;;;22.95;73.26;99695.72;10255832;22;99497;-78
2023/06/09 10:43:44;;;;;;;1.17;0.60;;;;;;;23.01;73.24;99694.28;10252859;28;96733;-78
2023/06/09 10:48:49;;;;;;;1.25;0.68;;;;;;;22.78;72.82;99699.25;10172843;28;96811;-78
2023/06/09 10:54:20;;;;;;;1.15;0.95;;;;;;;21.94;74.04;99720.84;10172291;28;96678;-78
2023/06/09 10:59:57;;;;;;;1.05;0.75;;;;;;;21.55;75.73;99736.16;10172288;28;96777;-79
2023/06/09 11:05:00;;;;;;;1.00;0.90;;;;;;;21.47;76.26;99739.53;10206576;28;97445;-78
2023/06/09 11:10:36;;;;;;;3.13;1.47;;;;;;;21.78;75.78;99734.84;10212078;28;96637;-79
2023/06/09 11:16:06;;;;;;;2.03;1.08;;;;;;;22.25;75.30;99736.59;10211593;28;96695;-78
2023/06/09 11:21:21;;;;;;;0.90;0.70;;;;;;;22.51;74.57;99742.97;10212984;28;96684;-78
2023/06/09 11:26:26;;;;;;;1.13;0.60;;;;;;;22.45;75.37;99750.78;10211041;28;96805;-78
2023/06/09 11:31:30;;;;;;;1.20;0.90;;;;;;;21.86;77.22;99760.94;10211245;28;96665;-77
2023/06/09 11:36:34;;;;;;;0.70;0.70;;;;;;;21.63;77.96;99760.38;10224649;28;96936;-78
2023/06/09 11:41:38;;;;;;;;;;;;;;;21.96;76.82;99756.38;10251303;28;96564;-78
2023/06/09 11:46:42;;;;;;;0.47;0.45;;;;;;;22.34;75.30;99770.56;10251364;28;96702;-77
2023/06/09 11:51:59;;;;;;;0.73;0.30;;;;;;;22.48;74.67;99763.88;10250320;28;96619;-78
2023/06/09 11:57:05;;;;;;;1.33;0.68;;;;;;;22.58;74.53;99772.72;10250911;28;96679;-78
2023/06/09 12:02:10;;;;;;;0.85;0.60;;;;;;;22.34;74.44;99777.75;10250465;28;96684;-77
2023/06/09 12:07:15;;;;;;;0.85;0.63;;;;;;;22.19;75.03;99796.16;10250048;28;96828;-79
2023/06/09 12:12:19;;;;;;;1.20;0.93;;;;;;;22.39;74.83;99794.25;10250290;28;96666;-78
2023/06/09 12:17:23;;;;;;;0.73;0.60;;;;;;;22.86;73.66;99785.19;10250448;28;96755;-78
2023/06/09 12:22:37;;;;;;;;;;;;;;;23.15;72.41;99776.94;10250731;28;96630;-78
2023/06/09 12:27:42;;;;;;;0.60;0.52;;;;;;;23.31;72.09;99771.75;10230550;28;97462;-78
2023/06/09 12:32:45;;;;;;;0.55;0.45;;;;;;;23.75;71.01;99768.16;10209345;28;96615;-78
2023/06/09 12:37:50;;;;;;;1.55;0.65;;;;;;;23.90;70.40;99763.91;10208810;28;96805;-78
2023/06/09 12:42:55;;;;;;;0.57;0.50;;;;;;;23.92;70.43;99761.06;10211925;28;96679;-78
2023/06/09 12:48:05;;;;;;;1.05;0.47;;;;;;;23.80;71.19;99762.31;10249330;28;96941;-78
2023/06/09 12:53:10;;;;;;;1.00;0.50;;;;;;;23.69;71.86;99766.09;10248833;28;96698;-78
2023/06/09 12:58:15;;;;;;;1.42;0.60;;;;;;;23.75;71.33;99759.25;10248995;28;96667;-78
2023/06/09 13:03:19;;;;;;;1.33;0.63;;;;;;;23.59;71.46;99760.81;10248830;28;96645;-78
2023/06/09 13:08:22;;;;;;;0.80;0.50;;;;;;;23.86;70.81;99759.00;10248864;28;96862;-77
2023/06/09 13:13:28;;;;;;;1.15;0.70;;;;;;;;;;10248531;28;96595;-78
2023/06/09 13:18:35;;;;;;;1.90;0.40;;;;;;;24.02;68.98;99765.34;10246890;28;97011;-78
2023/06/09 13:23:42;;;;;;;1.15;0.65;;;;;;;;;;10248360;28;96788;-78
2023/06/09 13:28:50;;;;;;;0.85;0.60;;;;;;;23.57;69.76;99772.69;10196008;28;96673;-78
2023/06/09 13:33:53;;;;;;;1.75;0.82;;;;;;;22.90;71.87;99775.84;10170388;28;96787;-77
2023/06/09 13:38:57;;;;;;;1.80;0.68;;;;;;;22.19;73.15;99780.06;10207889;28;96953;-79
2023/06/09 13:44:03;;;;;;;1.07;0.70;;;;;;;21.84;73.97;99779.81;10207380;28;97309;-79
2023/06/09 13:49:07;;;;;;;1.02;0.43;;;;;;;21.55;74.59;99795.06;10207394;28;97652;-78
2023/06/09 13:54:10;;;;;;;0.93;0.50;;;;;;;21.52;75.02;99798.00;10208725;28;96687;-79
2023/06/09 13:59:15;;;;;;;1.80;0.63;;;;;;;21.97;74.16;99791.06;10207437;28;96681;-79
2023/06/09 14:04:19;;;;;;;0.88;0.50;;;;;;;22.28;73.84;99799.81;10212683;28;96581;-78
2023/06/09 14:09:22;;;;;;;1.58;0.80;;;;;;;22.59;73.59;99794.03;10213615;28;96809;-77
2023/06/09 14:14:27;;;;;;;2.10;0.68;;;;;;;22.63;73.59;99794.56;10213878;28;96578;-78
2023/06/09 14:19:30;;;;;;;2.00;0.90;;;;;;;22.67;72.95;99797.81;10213547;28;96677;-78
2023/06/09 14:24:34;;;;;;;1.07;0.57;;;;;;;22.95;72.76;99794.16;10213325;28;96702;-78
2023/06/09 14:29:38;;;;;;;1.00;0.45;;;;;;;23.30;71.96;99794.25;10220392;28;97881;-78
2023/06/09 14:34:42;;;;;;;0.75;0.55;;;;;;;23.48;71.72;99803.13;10212844;28;97335;-78
2023/06/09 14:39:45;;;;;;;1.50;0.90;;;;;;;23.58;71.62;99803.91;10212930;28;97345;-78
2023/06/09 14:44:50;;;;;;;1.37;0.80;;;;;;;23.65;70.99;99811.22;10239067;28;97176;-78
2023/06/09 14:49:53;;;;;;;1.98;1.02;;;;;;;23.34;71.06;99796.44;10253064;28;96766;-78
2023/06/09 14:54:57;;;;;;;1.50;0.90;;;;;;;23.25;71.13;99804.59;10252723;28;97697;-78
2023/06/09 15:00:01;;;;;;;1.50;0.87;;;;;;;22.92;71.36;99797.16;10251070;28;97023;-78
2023/06/09 15:05:05;;;;;;;2.75;0.90;;;;;;;22.78;71.15;99800.34;10252302;28;96728;-78
2023/06/09 15:10:09;;;;;;;0.90;0.60;;;;;;;22.51;69.59;99801.97;10252515;28;96883;-78
2023/06/09 15:15:14;;;;;;;;;;;;;;;22.63;67.78;99815.22;10251263;28;97669;-78
2023/06/09 15:20:24;;;;;;;0.65;0.40;;;;;;;22.78;68.63;99811.06;10251975;28;97490;-78
2023/06/09 15:25:31;;;;;;;0.82;0.60;;;;;;;22.82;69.20;99815.97;10251796;28;96591;-78
2023/06/09 15:30:38;;;;;;;2.15;0.90;;;;;;;22.72;69.11;99819.66;10198073;28;96793;-78
2023/06/09 15:35:43;;;;;;;1.13;0.90;;;;;;;22.60;69.60;99824.38;10236454;28;96767;-78
2023/06/09 15:40:49;;;;;;;2.00;1.00;;;;;;;22.37;69.24;99826.56;10251423;28;96664;-78
2023/06/09 15:45:56;;;;;;;2.80;0.98;;;;;;;22.41;70.20;99821.75;10251040;28;96667;-78
2023/06/09 15:50:59;;;;;;;2.10;1.23;;;;;;;22.39;70.13;99827.28;10249424;28;96934;-78
2023/06/09 15:56:04;;;;;;;1.98;1.10;;;;;;;22.51;69.39;99822.56;10250972;28;96648;-78
2023/06/09 16:01:09;;;;;;;1.40;1.00;;;;;;;22.82;68.49;99825.88;10251056;28;96551;-78
2023/06/09 16:06:12;;;;;;;2.75;1.50;;;;;;;23.09;68.20;99836.63;10250530;28;97220;-78
2023/06/09 16:11:15;;;;;;;2.60;1.30;;;;;;;23.42;67.30;99839.50;10249520;28;96790;-78
2023/06/09 16:16:20;;;;;;;3.17;1.53;;;;;;;23.49;67.20;99842.44;10250076;28;96801;-78
2023/06/09 16:21:25;;;;;;;2.67;1.30;;;;;;;23.65;66.98;99837.25;10250216;28;96653;-78
2023/06/09 16:26:28;;;;;;;2.53;1.10;;;;;;;23.90;66.14;99831.09;10234373;28;97071;-78
2023/06/09 16:31:33;;;;;;;2.37;1.33;;;;;;;23.98;66.28;99824.97;10169738;28;96829;-78
2023/06/09 16:36:36;;;;;;;2.80;1.80;;;;;;;23.88;66.08;99830.41;10169119;28;96695;-78
2023/06/09 16:41:40;;;;;;;2.70;1.20;;;;;;;23.70;66.52;99841.16;10177447;28;96855;-79
2023/06/09 16:46:45;;;;;;;2.70;1.20;;;;;;;23.50;66.00;99847.66;10209116;28;96731;-78
2023/06/09 16:51:48;;;;;;;4.85;1.17;;;;;;;23.34;66.44;99842.09;10209010;28;96857;-78
2023/06/09 16:56:51;;;;;;;2.50;1.10;;;;;;;23.03;66.34;99853.31;10208437;28;97315;-78
2023/06/09 17:01:56;;;;;;;2.30;1.10;;;;;;;22.88;66.61;99854.78;10209243;28;96704;-78
2023/06/09 17:06:59;;;;;;;2.17;1.20;;;;;;;22.92;66.29;99858.88;10208386;28;97385;-78
2023/06/09 17:12:03;;;;;;;3.43;1.27;;;;;;;23.10;65.78;99863.31;10208515;28;96876;-78
2023/06/09 17:17:08;;;;;;;1.52;1.42;;;;;;;22.97;65.38;99862.81;10209801;28;96813;-78
2023/06/09 17:22:11;;;;;;;2.50;1.05;;;;;;;23.20;65.06;99877.50;10207984;28;96808;-78
2023/06/09 17:27:15;;;;;;;2.27;1.20;;;;;;;23.23;64.60;99879.88;10194078;28;96866;-79
2023/06/09 17:32:19;;;;;;;2.57;0.97;;;;;;;23.15;65.06;99873.56;10174248;28;96653;-79
2023/06/09 17:37:23;;;;;;;2.97;0.88;;;;;;;23.14;65.29;99883.50;10210245;28;96870;-79
2023/06/09 17:42:26;;;;;;;1.63;1.10;;;;;;;22.69;65.51;99889.72;10214670;28;97905;-79
2023/06/09 17:47:31;;;;;;;1.70;1.20;;;;;;;22.72;65.82;99889.41;10214333;28;96963;-79
2023/06/09 17:52:35;;;;;;;2.97;1.38;;;;;;;22.69;66.06;99892.41;10215331;28;96729;-79
2023/06/09 17:57:40;;;;;;;1.67;0.85;;;;;;;22.43;66.16;99900.22;10214628;28;96715;-79
2023/06/09 18:02:45;;;;;;;1.83;1.02;;;;;;;22.41;66.52;99911.09;10214118;28;96811;-79
2023/06/09 18:07:48;;;;;;;3.08;1.00;;;;;;;22.16;67.05;99932.28;10215103;28;96738;-79
2023/06/09 18:12:51;;;;;;;1.63;1.13;;;;;;;21.94;68.14;99941.41;10213784;28;96763;-79
2023/06/09 18:17:56;;;;;;;2.67;1.43;;;;;;;21.84;68.85;99953.97;10213391;28;96736;-79
2023/06/09 18:22:59;;;;;;;1.85;1.15;;;;;;;21.90;68.66;99961.41;10213077;28;96582;-79
2023/06/09 18:28:03;;;;;;;4.43;1.65;;;;;;;21.99;68.70;99962.44;10211848;28;96860;-79
2023/06/09 18:33:08;;;;;;;2.10;1.07;;;;;;;21.99;68.73;99971.34;10212840;28;97590;-79
2023/06/09 18:38:11;;;;;;;2.60;1.00;;;;;;;21.96;68.95;99986.81;10212147;28;96755;-79
2023/06/09 18:43:15;;;;;;;2.50;1.33;;;;;;;21.89;68.97;99985.69;10241970;28;96718;-79
2023/06/09 18:48:20;;;;;;;2.30;1.10;;;;;;;21.92;68.92;99983.56;10252458;28;97881;-79
2023/06/09 18:53:25;;;;;;;1.75;0.85;;;;;;;21.76;68.58;99996.63;10253072;28;96900;-79
2023/06/09 18:58:28;;;;;;;3.50;1.10;;;;;;;21.66;68.72;99998.44;10252988;28;96952;-79
2023/06/09 19:03:33;;;;;;;1.75;1.00;;;;;;;21.60;68.91;99995.47;10252174;28;96880;-79
2023/06/09 19:08:36;;;;;;;2.97;1.20;;;;;;;21.44;68.66;99990.63;10252196;28;96709;-79
2023/06/09 19:13:40;;;;;;;2.95;1.00;;;;;;;21.35;68.31;100004.81;10250460;28;97534;-79
2023/06/09 19:18:44;;;;;;;2.47;1.10;;;;;;;21.20;68.00;100012.38;10252150;28;97439;-79
2023/06/09 19:23:51;;;;;;;1.40;0.70;;;;;;;21.19;68.67;100023.22;10252062;28;97440;-79
2023/06/09 19:28:55;;;;;;;2.17;1.13;;;;;;;21.14;68.84;100025.41;10197652;28;96741;-79
2023/06/09 19:34:02;;;;;;;;;;;;;;;21.10;69.10;100027.50;10199451;28;97192;-79
2023/06/09 19:39:05;;;;;;;1.27;0.60;;;;;;;21.08;69.21;100029.47;10211275;28;96688;-79
2023/06/09 19:44:08;;;;;;;2.67;0.90;;;;;;;21.01;69.68;100028.31;10210969;28;96994;-79
2023/06/09 19:49:14;;;;;;;2.30;0.75;;;;;;;20.95;69.76;100035.97;10211884;28;97209;-79
2023/06/09 19:54:18;;;;;;;3.83;0.95;;;;;;;20.93;70.05;100032.63;10210870;28;97976;-78
2023/06/09 19:59:21;;;;;;;2.50;1.00;;;;;;;20.85;69.97;100046.63;10209553;28;96768;-79
2023/06/09 20:04:26;;;;;;;2.55;1.20;;;;;;;20.76;70.42;100038.53;10209249;28;96761;-78
2023/06/09 20:09:30;;;;;;;2.03;1.05;;;;;;;20.66;70.69;100043.81;10210556;28;96561;-78
2023/06/09 20:14:33;;;;;;;2.60;1.08;;;;;;;20.69;70.59;100050.75;10210126;28;97521;-79
2023/06/09 20:19:39;;;;;;;3.00;1.10;;;;;;;20.72;70.71;100048.66;10209956;28;96997;-79
2023/06/09 20:24:43;;;;;;;2.13;0.80;;;;;;;20.78;70.75;100056.16;10210348;28;97380;-79
2023/06/09 20:29:47;;;;;;;1.88;1.10;;;;;;;20.81;71.08;100061.25;10209521;28;96828;-79
2023/06/09 20:34:52;;;;;;;4.32;1.15;;;;;;;20.80;71.45;100061.38;10208765;28;97153;-79
2023/06/09 20:39:56;;;;;;;3.88;1.20;;;;;;;20.84;71.66;100079.72;10220298;28;96880;-79
2023/06/09 20:45:02;;;;;;;2.25;1.08;;;;;;;20.86;71.67;100083.09;10248980;28;96716;-79
2023/06/09 20:50:07;;;;;;;2.50;1.30;;;;;;;20.96;71.82;100096.56;10249216;28;96668;-79
2023/06/09 20:55:11;;;;;;;3.00;1.13;;;;;;;20.93;71.90;100096.81;10247781;28;96605;-79
2023/06/09 21:00:15;;;;;;;3.20;1.27;;;;;;;20.88;72.60;100110.56;10248172;28;97000;-78
2023/06/09 21:05:20;;;;;;;2.70;1.00;;;;;;;20.83;72.54;100117.28;10248348;28;96791;-79
2023/06/09 21:10:23;;;;;;;2.83;1.02;;;;;;;20.87;72.21;100124.06;10248788;28;97096;-79
2023/06/09 21:15:27;;;;;;;2.50;1.27;;;;;;;20.73;72.71;100135.06;10247541;28;96794;-79
2023/06/09 21:20:32;;;;;;;3.53;1.20;;;;;;;20.72;72.64;100144.94;10248300;28;97031;-79
2023/06/09 21:25:38;;;;;;;1.92;0.95;;;;;;;20.52;73.64;100142.19;10247543;28;97109;-79
2023/06/09 21:30:41;;;;;;;3.28;1.23;;;;;;;20.45;74.08;100138.31;10215597;28;96680;-79
2023/06/09 21:35:46;;;;;;;2.42;1.25;;;;;;;20.18;75.67;100130.72;10247685;28;97257;-79
2023/06/09 21:40:49;;;;;;;3.50;1.35;;;;;;;20.08;76.13;100137.78;10248266;28;97202;-79
2023/06/09 21:45:53;;;;;;;2.17;1.33;;;;;;;20.16;75.43;100151.34;10246953;28;97538;-79
2023/06/09 21:50:58;;;;;;;3.50;1.30;;;;;;;20.29;75.01;100150.22;10247047;28;96786;-79
2023/06/09 21:56:01;;;;;;;3.13;1.20;;;;;;;20.19;75.32;100143.94;10247779;28;97099;-79
2023/06/09 22:01:04;;;;;;;2.88;1.20;;;;;;;20.21;75.25;100149.16;10247588;28;96855;-79
2023/06/09 22:06:10;;;;;;;3.50;1.42;;;;;;;20.18;75.41;100152.09;10246220;28;98123;-79
2023/06/09 22:11:13;;;;;;;2.10;1.40;;;;;;;20.07;75.73;100152.94;10247537;28;97755;-79
2023/06/09 22:16:16;;;;;;;1.70;1.33;;;;;;;20.16;75.74;100154.03;10246852;28;96674;-79
2023/06/09 22:21:21;;;;;;;2.97;1.20;;;;;;;20.19;75.41;100156.44;10247450;28;96845;-78
2023/06/09 22:26:25;;;;;;;2.67;1.50;;;;;;;20.21;75.34;100163.38;10246532;28;96826;-79
2023/06/09 22:31:28;;;;;;;2.57;1.30;;;;;;;19.98;76.06;100151.00;10213367;28;97951;-79
2023/06/09 22:36:33;;;;;;;2.53;1.13;;;;;;;19.95;76.39;100156.59;10211897;28;96884;-79
2023/06/09 22:41:36;;;;;;;4.13;1.40;;;;;;;19.93;76.46;100158.53;10244414;28;96803;-79
2023/06/09 22:46:40;;;;;;;2.10;1.10;;;;;;;19.87;76.90;100163.53;10253183;28;96655;-79
2023/06/09 22:51:45;;;;;;;2.27;1.30;;;;;;;19.93;76.51;100163.00;10253200;28;97590;-79
2023/06/09 22:56:49;;;;;;;3.22;1.55;;;;;;;19.87;76.73;100174.19;10252117;28;97743;-79
2023/06/09 23:01:52;;;;;;;2.20;1.33;;;;;;;19.81;76.99;100180.00;10252784;28;96806;-79
2023/06/09 23:06:58;;;;;;;3.33;1.40;;;;;;;19.92;76.48;100180.03;10231214;22;102818;-79
2023/06/09 23:12:01;;;;;;;2.50;1.23;;;;;;;19.98;76.40;100184.88;10213639;28;97255;-79
2023/06/09 23:17:05;;;;;;;2.13;1.23;;;;;;;20.09;76.17;100182.22;10211703;28;96970;-79
2023/06/09 23:22:12;;;;;;;2.60;1.27;;;;;;;19.94;76.46;100191.44;10212498;28;97898;-79
2023/06/09 23:27:16;;;;;;;2.53;1.40;;;;;;;19.82;77.21;100185.22;10210388;28;97021;-79
2023/06/09 23:32:20;;;;;;;5.70;1.70;;;;;;;19.83;76.92;100183.41;10211743;28;96757;-79
2023/06/09 23:37:27;;;;;;;3.00;1.60;;;;;;;19.84;77.08;100177.13;10209987;28;97217;-79
2023/06/09 23:42:31;;;;;;;3.15;1.42;;;;;;;19.81;77.20;100182.69;10211127;28;96673;-79